sensor_id;sensor_type;location;lat;lon;timestamp;pressure;altitude;pressure_sealevel;temperature;humidity
18749;BME280;9503;53.560;10.246;2023-11-19T00:01:31;100258.09;;;10.46;85.79
18749;BME280;9503;53.560;10.246;2023-11-19T00:03:58;100254.72;;;10.47;85.15
18749;BME280;9503;53.560;10.246;2023-11-19T00:06:25;100253.41;;;10.36;85.74
18749;BME280;9503;53.560;10.246;2023-11-19T00:08:54;100250.47;;;10.08;87.69
18749;BME280;9503;53.560;10.246;2023-11-19T00:11:21;100244.28;;;10.43;86.32
18749;BME280;9503;53.560;10.246;2023-11-19T00:13:47;100236.91;;;10.30;86.29
18749;BME280;9503;53.560;10.246;2023-11-19T00:16:14;100233.53;;;10.31;86.74
18749;BME280;9503;53.560;10.246;2023-11-19T00:18:41;100235.66;;;10.41;86.63
18749;BME280;9503;53.560;10.246;2023-11-19T00:21:08;100222.53;;;10.76;84.93
18749;BME280;9503;53.560;10.246;2023-11-19T00:23:35;100214.78;;;10.52;85.42
18749;BME280;9503;53.560;10.246;2023-11-19T00:26:04;100197.41;;;10.45;85.59
18749;BME280;9503;53.560;10.246;2023-11-19T00:28:31;100197.25;;;10.01;86.57
18749;BME280;9503;53.560;10.246;2023-11-19T00:30:58;100183.44;;;10.18;87.36
18749;BME280;9503;53.560;10.246;2023-11-19T00:33:25;100185.13;;;9.96;88.29
18749;BME280;9503;53.560;10.246;2023-11-19T00:35:51;100179.78;;;10.32;87.94
18749;BME280;9503;53.560;10.246;2023-11-19T00:38:18;100165.63;;;10.42;86.85
18749;BME280;9503;53.560;10.246;2023-11-19T00:40:45;100155.50;;;10.22;87.39
18749;BME280;9503;53.560;10.246;2023-11-19T00:43:13;100150.41;;;10.45;86.47
18749;BME280;9503;53.560;10.246;2023-11-19T00:45:39;100138.81;;;10.55;85.90
18749;BME280;9503;53.560;10.246;2023-11-19T00:48:06;100132.13;;;10.81;85.39
18749;BME280;9503;53.560;10.246;2023-11-19T00:50:32;100120.81;;;10.53;85.19
18749;BME280;9503;53.560;10.246;2023-11-19T00:52:59;100129.09;;;10.68;85.86
18749;BME280;9503;53.560;10.246;2023-11-19T00:55:26;100129.19;;;10.71;84.82
18749;BME280;9503;53.560;10.246;2023-11-19T00:57:52;100132.84;;;10.56;85.83
18749;BME280;9503;53.560;10.246;2023-11-19T01:00:20;100127.84;;;10.81;84.59
18749;BME280;9503;53.560;10.246;2023-11-19T01:02:49;100120.09;;;10.35;86.22
18749;BME280;9503;53.560;10.246;2023-11-19T01:05:16;100107.94;;;10.29;87.45
18749;BME280;9503;53.560;10.246;2023-11-19T01:07:44;100097.56;;;10.48;86.94
18749;BME280;9503;53.560;10.246;2023-11-19T01:10:10;100089.16;;;10.75;86.25
18749;BME280;9503;53.560;10.246;2023-11-19T01:12:37;100072.50;;;10.41;87.07
18749;BME280;9503;53.560;10.246;2023-11-19T01:15:04;100056.44;;;10.23;88.18
18749;BME280;9503;53.560;10.246;2023-11-19T01:17:32;100053.88;;;10.68;86.85
18749;BME280;9503;53.560;10.246;2023-11-19T01:19:59;100051.19;;;10.42;87.40
18749;BME280;9503;53.560;10.246;2023-11-19T01:22:26;100042.00;;;10.71;86.22
18749;BME280;9503;53.560;10.246;2023-11-19T01:24:52;100027.78;;;10.33;87.17
18749;BME280;9503;53.560;10.246;2023-11-19T01:27:19;100040.81;;;10.62;86.95
18749;BME280;9503;53.560;10.246;2023-11-19T01:29:46;100022.81;;;10.15;88.13
18749;BME280;9503;53.560;10.246;2023-11-19T01:32:12;100013.50;;;10.17;88.33
18749;BME280;9503;53.560;10.246;2023-11-19T01:34:40;100013.75;;;9.80;89.66
18749;BME280;9503;53.560;10.246;2023-11-19T01:37:07;100015.50;;;10.71;86.71
18749;BME280;9503;53.560;10.246;2023-11-19T01:39:35;100002.09;;;10.54;86.23
18749;BME280;9503;53.560;10.246;2023-11-19T01:42:02;99991.81;;;10.30;86.63
18749;BME280;9503;53.560;10.246;2023-11-19T01:44:28;99999.09;;;10.90;85.47
18749;BME280;9503;53.560;10.246;2023-11-19T01:46:55;99992.97;;;10.38;86.61
18749;BME280;9503;53.560;10.246;2023-11-19T01:49:21;99981.09;;;10.40;86.64
18749;BME280;9503;53.560;10.246;2023-11-19T01:51:49;99974.44;;;10.45;86.52
18749;BME280;9503;53.560;10.246;2023-11-19T01:54:16;99978.06;;;10.28;87.07
18749;BME280;9503;53.560;10.246;2023-11-19T01:56:43;99966.06;;;10.27;87.69
18749;BME280;9503;53.560;10.246;2023-11-19T01:59:11;99964.75;;;10.61;86.62
18749;BME280;9503;53.560;10.246;2023-11-19T02:01:40;99966.75;;;10.69;86.24
18749;BME280;9503;53.560;10.246;2023-11-19T02:04:07;99965.16;;;10.49;86.84
18749;BME280;9503;53.560;10.246;2023-11-19T02:06:37;99968.25;;;10.64;86.71
18749;BME280;9503;53.560;10.246;2023-11-19T02:09:07;99959.94;;;10.46;87.79
18749;BME280;9503;53.560;10.246;2023-11-19T02:11:35;99946.91;;;10.40;87.02
18749;BME280;9503;53.560;10.246;2023-11-19T02:14:02;99926.63;;;10.46;87.11
18749;BME280;9503;53.560;10.246;2023-11-19T02:16:29;99929.38;;;10.06;88.01
18749;BME280;9503;53.560;10.246;2023-11-19T02:18:56;99924.38;;;10.55;87.10
18749;BME280;9503;53.560;10.246;2023-11-19T02:21:23;99915.72;;;10.77;85.64
18749;BME280;9503;53.560;10.246;2023-11-19T02:23:49;99915.28;;;10.89;85.84
18749;BME280;9503;53.560;10.246;2023-11-19T02:26:24;99913.56;;;10.64;86.40
18749;BME280;9503;53.560;10.246;2023-11-19T02:28:56;99900.41;;;10.78;86.21
18749;BME280;9503;53.560;10.246;2023-11-19T02:31:22;99887.56;;;10.78;86.10
18749;BME280;9503;53.560;10.246;2023-11-19T02:33:49;99880.47;;;10.70;86.19
18749;BME280;9503;53.560;10.246;2023-11-19T02:36:17;99883.66;;;10.88;85.69
18749;BME280;9503;53.560;10.246;2023-11-19T02:38:43;99876.41;;;10.76;85.67
18749;BME280;9503;53.560;10.246;2023-11-19T02:41:10;99870.16;;;10.68;86.19
18749;BME280;9503;53.560;10.246;2023-11-19T02:43:37;99867.28;;;10.85;85.51
18749;BME280;9503;53.560;10.246;2023-11-19T02:46:06;99856.81;;;10.53;87.40
18749;BME280;9503;53.560;10.246;2023-11-19T02:48:33;99850.00;;;10.54;86.83
18749;BME280;9503;53.560;10.246;2023-11-19T02:51:00;99831.91;;;10.74;86.64
18749;BME280;9503;53.560;10.246;2023-11-19T02:53:28;99831.81;;;10.98;84.88
18749;BME280;9503;53.560;10.246;2023-11-19T02:55:55;99831.53;;;10.89;85.54
18749;BME280;9503;53.560;10.246;2023-11-19T02:58:26;99824.06;;;10.70;86.34
18749;BME280;9503;53.560;10.246;2023-11-19T03:00:54;99818.47;;;10.82;86.66
18749;BME280;9503;53.560;10.246;2023-11-19T03:03:24;99811.31;;;10.46;86.85
18749;BME280;9503;53.560;10.246;2023-11-19T03:05:54;99804.00;;;11.11;85.32
18749;BME280;9503;53.560;10.246;2023-11-19T03:08:20;99805.50;;;11.04;84.95
18749;BME280;9503;53.560;10.246;2023-11-19T03:10:47;99802.78;;;11.26;84.50
18749;BME280;9503;53.560;10.246;2023-11-19T03:13:14;99796.75;;;10.97;85.67
18749;BME280;9503;53.560;10.246;2023-11-19T03:15:42;99793.53;;;11.04;85.80
18749;BME280;9503;53.560;10.246;2023-11-19T03:18:09;99797.84;;;11.05;85.30
18749;BME280;9503;53.560;10.246;2023-11-19T03:20:37;99787.88;;;11.15;85.77
18749;BME280;9503;53.560;10.246;2023-11-19T03:23:03;99789.06;;;11.26;84.68
18749;BME280;9503;53.560;10.246;2023-11-19T03:25:31;99786.28;;;11.18;85.46
18749;BME280;9503;53.560;10.246;2023-11-19T03:27:59;99766.53;;;10.87;86.92
18749;BME280;9503;53.560;10.246;2023-11-19T03:30:27;99760.72;;;10.66;87.97
18749;BME280;9503;53.560;10.246;2023-11-19T03:32:54;99755.75;;;11.27;86.55
18749;BME280;9503;53.560;10.246;2023-11-19T03:35:21;99739.22;;;11.18;85.87
18749;BME280;9503;53.560;10.246;2023-11-19T03:37:49;99748.44;;;10.84;86.95
18749;BME280;9503;53.560;10.246;2023-11-19T03:40:16;99721.06;;;11.40;86.04
18749;BME280;9503;53.560;10.246;2023-11-19T03:42:44;99728.22;;;11.22;85.55
18749;BME280;9503;53.560;10.246;2023-11-19T03:45:10;99714.53;;;11.21;86.26
18749;BME280;9503;53.560;10.246;2023-11-19T03:47:37;99721.72;;;11.33;85.59
18749;BME280;9503;53.560;10.246;2023-11-19T03:50:05;99730.03;;;11.24;85.66
18749;BME280;9503;53.560;10.246;2023-11-19T03:52:32;99729.59;;;11.39;86.40
18749;BME280;9503;53.560;10.246;2023-11-19T03:55:00;99731.78;;;11.57;85.07
18749;BME280;9503;53.560;10.246;2023-11-19T03:57:28;99725.88;;;11.59;84.71
18749;BME280;9503;53.560;10.246;2023-11-19T03:59:54;99723.94;;;11.82;83.64
18749;BME280;9503;53.560;10.246;2023-11-19T04:02:23;99724.31;;;11.65;84.31
18749;BME280;9503;53.560;10.246;2023-11-19T04:04:53;99710.34;;;11.55;84.72
18749;BME280;9503;53.560;10.246;2023-11-19T04:07:19;99708.28;;;11.73;84.17
18749;BME280;9503;53.560;10.246;2023-11-19T04:09:46;99704.94;;;11.76;84.32
18749;BME280;9503;53.560;10.246;2023-11-19T04:12:14;99696.72;;;11.89;83.77
18749;BME280;9503;53.560;10.246;2023-11-19T04:14:41;99696.59;;;11.83;83.68
18749;BME280;9503;53.560;10.246;2023-11-19T04:17:07;99702.13;;;11.98;83.84
18749;BME280;9503;53.560;10.246;2023-11-19T04:19:34;99697.06;;;11.70;84.58
18749;BME280;9503;53.560;10.246;2023-11-19T04:22:00;99699.66;;;11.71;84.82
18749;BME280;9503;53.560;10.246;2023-11-19T04:24:27;99692.69;;;11.97;84.31
18749;BME280;9503;53.560;10.246;2023-11-19T04:26:54;99676.41;;;11.67;84.78
18749;BME280;9503;53.560;10.246;2023-11-19T04:29:21;99680.56;;;11.92;84.38
18749;BME280;9503;53.560;10.246;2023-11-19T04:31:48;99669.34;;;12.23;83.26
18749;BME280;9503;53.560;10.246;2023-11-19T04:34:15;99666.84;;;11.91;83.74
18749;BME280;9503;53.560;10.246;2023-11-19T04:36:41;99670.53;;;12.02;84.02
18749;BME280;9503;53.560;10.246;2023-11-19T04:39:09;99664.66;;;12.06;84.09
18749;BME280;9503;53.560;10.246;2023-11-19T04:41:45;99663.91;;;11.79;85.35
18749;BME280;9503;53.560;10.246;2023-11-19T04:44:12;99650.38;;;12.19;83.74
18749;BME280;9503;53.560;10.246;2023-11-19T04:46:40;99646.50;;;12.00;83.60
18749;BME280;9503;53.560;10.246;2023-11-19T04:49:08;99663.97;;;11.80;85.00
18749;BME280;9503;53.560;10.246;2023-11-19T04:51:38;99652.16;;;11.87;85.09
18749;BME280;9503;53.560;10.246;2023-11-19T04:54:05;99654.34;;;12.05;84.85
18749;BME280;9503;53.560;10.246;2023-11-19T04:56:32;99655.66;;;12.24;84.08
18749;BME280;9503;53.560;10.246;2023-11-19T04:58:58;99642.38;;;11.74;85.12
18749;BME280;9503;53.560;10.246;2023-11-19T05:01:25;99645.00;;;12.08;85.61
18749;BME280;9503;53.560;10.246;2023-11-19T05:03:53;99644.19;;;12.11;85.37
18749;BME280;9503;53.560;10.246;2023-11-19T05:06:19;99644.66;;;12.29;84.95
18749;BME280;9503;53.560;10.246;2023-11-19T05:08:46;99642.56;;;12.13;84.88
18749;BME280;9503;53.560;10.246;2023-11-19T05:11:13;99639.53;;;12.31;85.47
18749;BME280;9503;53.560;10.246;2023-11-19T05:13:43;99632.28;;;12.51;84.61
18749;BME280;9503;53.560;10.246;2023-11-19T05:16:10;99629.88;;;12.57;84.24
18749;BME280;9503;53.560;10.246;2023-11-19T05:18:39;99624.72;;;12.57;84.22
18749;BME280;9503;53.560;10.246;2023-11-19T05:21:07;99623.88;;;12.58;84.00
18749;BME280;9503;53.560;10.246;2023-11-19T05:23:34;99627.34;;;12.60;84.54
18749;BME280;9503;53.560;10.246;2023-11-19T05:26:01;99621.06;;;12.47;85.19
18749;BME280;9503;53.560;10.246;2023-11-19T05:28:27;99620.25;;;12.87;83.81
18749;BME280;9503;53.560;10.246;2023-11-19T05:30:54;99609.28;;;12.97;83.49
18749;BME280;9503;53.560;10.246;2023-11-19T05:33:21;99609.78;;;12.80;84.08
18749;BME280;9503;53.560;10.246;2023-11-19T05:35:48;99611.28;;;13.11;83.26
18749;BME280;9503;53.560;10.246;2023-11-19T05:38:16;99600.94;;;13.08;83.12
18749;BME280;9503;53.560;10.246;2023-11-19T05:40:43;99601.75;;;13.07;83.33
18749;BME280;9503;53.560;10.246;2023-11-19T05:43:10;99593.53;;;13.23;83.18
18749;BME280;9503;53.560;10.246;2023-11-19T05:45:36;99587.28;;;13.12;83.68
18749;BME280;9503;53.560;10.246;2023-11-19T05:48:04;99601.44;;;13.34;83.88
18749;BME280;9503;53.560;10.246;2023-11-19T05:50:30;99604.88;;;12.51;86.35
18749;BME280;9503;53.560;10.246;2023-11-19T05:52:57;99601.88;;;13.14;86.28
18749;BME280;9503;53.560;10.246;2023-11-19T05:55:25;99606.56;;;13.31;85.06
18749;BME280;9503;53.560;10.246;2023-11-19T05:57:53;99597.44;;;13.49;84.94
18749;BME280;9503;53.560;10.246;2023-11-19T06:00:20;99597.25;;;13.37;84.56
18749;BME280;9503;53.560;10.246;2023-11-19T06:02:46;99597.00;;;13.73;84.05
18749;BME280;9503;53.560;10.246;2023-11-19T06:05:13;99592.16;;;13.92;83.79
18749;BME280;9503;53.560;10.246;2023-11-19T06:07:39;99609.47;;;13.99;83.76
18749;BME280;9503;53.560;10.246;2023-11-19T06:10:07;99600.75;;;13.91;83.99
18749;BME280;9503;53.560;10.246;2023-11-19T06:12:36;99596.69;;;14.06;83.88
18749;BME280;9503;53.560;10.246;2023-11-19T06:15:05;99591.53;;;14.06;84.17
18749;BME280;9503;53.560;10.246;2023-11-19T06:17:31;99597.94;;;14.31;84.23
18749;BME280;9503;53.560;10.246;2023-11-19T06:19:58;99602.16;;;14.26;84.37
18749;BME280;9503;53.560;10.246;2023-11-19T06:22:25;99601.53;;;14.43;84.64
18749;BME280;9503;53.560;10.246;2023-11-19T06:24:51;99591.56;;;14.65;83.55
18749;BME280;9503;53.560;10.246;2023-11-19T06:27:18;99595.66;;;14.48;83.52
18749;BME280;9503;53.560;10.246;2023-11-19T06:29:46;99601.03;;;14.67;83.52
18749;BME280;9503;53.560;10.246;2023-11-19T06:32:12;99606.25;;;14.70;83.64
18749;BME280;9503;53.560;10.246;2023-11-19T06:34:41;99601.88;;;14.65;83.85
18749;BME280;9503;53.560;10.246;2023-11-19T06:37:08;99605.41;;;14.71;84.20
18749;BME280;9503;53.560;10.246;2023-11-19T06:39:34;99605.59;;;14.84;84.03
18749;BME280;9503;53.560;10.246;2023-11-19T06:42:02;99605.72;;;14.95;83.63
18749;BME280;9503;53.560;10.246;2023-11-19T06:44:29;99600.53;;;14.92;83.24
18749;BME280;9503;53.560;10.246;2023-11-19T06:46:57;99605.03;;;15.11;83.04
18749;BME280;9503;53.560;10.246;2023-11-19T06:49:24;99603.28;;;15.06;83.15
18749;BME280;9503;53.560;10.246;2023-11-19T06:51:50;99609.25;;;15.05;84.01
18749;BME280;9503;53.560;10.246;2023-11-19T06:54:17;99601.50;;;15.02;85.61
18749;BME280;9503;53.560;10.246;2023-11-19T06:56:44;99593.34;;;14.10;91.45
18749;BME280;9503;53.560;10.246;2023-11-19T06:59:10;99592.00;;;14.38;90.70
18749;BME280;9503;53.560;10.246;2023-11-19T07:01:37;99591.22;;;15.06;89.37
18749;BME280;9503;53.560;10.246;2023-11-19T07:04:05;99596.41;;;15.09;87.86
18749;BME280;9503;53.560;10.246;2023-11-19T07:06:34;99596.16;;;14.89;89.04
18749;BME280;9503;53.560;10.246;2023-11-19T07:09:02;99594.59;;;14.38;91.92
18749;BME280;9503;53.560;10.246;2023-11-19T07:11:35;99588.47;;;14.92;90.95
18749;BME280;9503;53.560;10.246;2023-11-19T07:14:01;99585.75;;;14.82;93.02
18749;BME280;9503;53.560;10.246;2023-11-19T07:16:28;99598.25;;;14.50;96.23
18749;BME280;9503;53.560;10.246;2023-11-19T07:18:55;99597.53;;;14.61;97.11
18749;BME280;9503;53.560;10.246;2023-11-19T07:21:22;99598.06;;;15.03;94.56
18749;BME280;9503;53.560;10.246;2023-11-19T07:23:49;99594.06;;;15.31;94.34
18749;BME280;9503;53.560;10.246;2023-11-19T07:26:17;99593.06;;;15.18;93.96
18749;BME280;9503;53.560;10.246;2023-11-19T07:28:43;99596.31;;;15.00;96.29
18749;BME280;9503;53.560;10.246;2023-11-19T07:31:11;99597.38;;;15.19;93.77
18749;BME280;9503;53.560;10.246;2023-11-19T07:33:39;99605.22;;;15.27;94.47
18749;BME280;9503;53.560;10.246;2023-11-19T07:36:08;99606.69;;;15.05;95.52
18749;BME280;9503;53.560;10.246;2023-11-19T07:38:36;99605.59;;;14.84;96.98
18749;BME280;9503;53.560;10.246;2023-11-19T07:41:04;99607.97;;;14.69;97.53
18749;BME280;9503;53.560;10.246;2023-11-19T07:43:32;99612.88;;;15.19;97.01
18749;BME280;9503;53.560;10.246;2023-11-19T07:45:58;99619.81;;;15.22;96.74
18749;BME280;9503;53.560;10.246;2023-11-19T07:48:25;99619.53;;;15.76;93.26
18749;BME280;9503;53.560;10.246;2023-11-19T07:50:52;99624.03;;;16.00;91.89
18749;BME280;9503;53.560;10.246;2023-11-19T07:53:19;99621.00;;;15.51;93.13
18749;BME280;9503;53.560;10.246;2023-11-19T07:55:47;99620.44;;;15.83;92.36
18749;BME280;9503;53.560;10.246;2023-11-19T07:58:14;99631.78;;;15.98;92.68
18749;BME280;9503;53.560;10.246;2023-11-19T08:00:40;99628.34;;;15.96;90.78
18749;BME280;9503;53.560;10.246;2023-11-19T08:03:07;99627.16;;;15.64;92.84
18749;BME280;9503;53.560;10.246;2023-11-19T08:05:33;99628.28;;;15.89;92.61
18749;BME280;9503;53.560;10.246;2023-11-19T08:08:00;99631.72;;;15.89;93.81
18749;BME280;9503;53.560;10.246;2023-11-19T08:10:27;99637.53;;;15.65;92.91
18749;BME280;9503;53.560;10.246;2023-11-19T08:12:55;99644.91;;;16.23;91.06
18749;BME280;9503;53.560;10.246;2023-11-19T08:15:22;99650.13;;;16.26;90.97
18749;BME280;9503;53.560;10.246;2023-11-19T08:17:48;99644.53;;;15.79;90.83
18749;BME280;9503;53.560;10.246;2023-11-19T08:20:15;99637.34;;;16.49;89.00
18749;BME280;9503;53.560;10.246;2023-11-19T08:22:41;99642.31;;;16.21;90.50
18749;BME280;9503;53.560;10.246;2023-11-19T08:25:08;99641.13;;;15.80;91.72
18749;BME280;9503;53.560;10.246;2023-11-19T08:27:35;99654.13;;;15.90;91.92
18749;BME280;9503;53.560;10.246;2023-11-19T08:30:04;99657.59;;;15.92;89.88
18749;BME280;9503;53.560;10.246;2023-11-19T08:32:32;99654.38;;;16.22;91.16
18749;BME280;9503;53.560;10.246;2023-11-19T08:34:58;99656.97;;;16.21;90.26
18749;BME280;9503;53.560;10.246;2023-11-19T08:37:25;99661.13;;;16.02;89.92
18749;BME280;9503;53.560;10.246;2023-11-19T08:39:52;99660.16;;;15.89;91.43
18749;BME280;9503;53.560;10.246;2023-11-19T08:42:19;99645.03;;;15.45;91.45
18749;BME280;9503;53.560;10.246;2023-11-19T08:44:49;99663.72;;;16.03;92.83
18749;BME280;9503;53.560;10.246;2023-11-19T08:47:17;99660.69;;;16.53;90.18
18749;BME280;9503;53.560;10.246;2023-11-19T08:49:44;99665.09;;;15.66;92.24
18749;BME280;9503;53.560;10.246;2023-11-19T08:52:10;99664.34;;;16.88;89.12
18749;BME280;9503;53.560;10.246;2023-11-19T08:54:37;99660.69;;;15.61;91.56
18749;BME280;9503;53.560;10.246;2023-11-19T08:57:04;99657.78;;;16.12;90.34
18749;BME280;9503;53.560;10.246;2023-11-19T08:59:32;99663.53;;;15.82;91.28
18749;BME280;9503;53.560;10.246;2023-11-19T09:01:59;99662.03;;;16.06;90.29
18749;BME280;9503;53.560;10.246;2023-11-19T09:04:27;99664.78;;;16.30;88.20
18749;BME280;9503;53.560;10.246;2023-11-19T09:06:53;99665.19;;;15.77;91.13
18749;BME280;9503;53.560;10.246;2023-11-19T09:09:21;99670.56;;;15.95;90.81
18749;BME280;9503;53.560;10.246;2023-11-19T09:11:47;99673.72;;;16.69;88.95
18749;BME280;9503;53.560;10.246;2023-11-19T09:14:14;99682.28;;;16.60;87.83
18749;BME280;9503;53.560;10.246;2023-11-19T09:16:40;99683.13;;;16.59;86.40
18749;BME280;9503;53.560;10.246;2023-11-19T09:19:07;99681.63;;;15.84;90.10
18749;BME280;9503;53.560;10.246;2023-11-19T09:21:35;99691.63;;;16.44;90.00
18749;BME280;9503;53.560;10.246;2023-11-19T09:24:04;99681.28;;;15.55;89.96
18749;BME280;9503;53.560;10.246;2023-11-19T09:26:32;99686.84;;;15.87;91.62
18749;BME280;9503;53.560;10.246;2023-11-19T09:28:59;99682.69;;;16.06;89.11
18749;BME280;9503;53.560;10.246;2023-11-19T09:31:26;99680.38;;;16.36;88.05
18749;BME280;9503;53.560;10.246;2023-11-19T09:33:52;99684.25;;;16.93;86.44
18749;BME280;9503;53.560;10.246;2023-11-19T09:36:19;99682.78;;;16.15;88.44
18749;BME280;9503;53.560;10.246;2023-11-19T09:38:47;99681.03;;;16.14;87.67
18749;BME280;9503;53.560;10.246;2023-11-19T09:41:14;99684.09;;;16.72;85.70
18749;BME280;9503;53.560;10.246;2023-11-19T09:43:42;99683.81;;;16.37;87.10
18749;BME280;9503;53.560;10.246;2023-11-19T09:46:09;99687.81;;;17.17;83.43
18749;BME280;9503;53.560;10.246;2023-11-19T09:48:37;99695.41;;;16.83;82.37
18749;BME280;9503;53.560;10.246;2023-11-19T09:51:06;99679.13;;;15.91;86.30
18749;BME280;9503;53.560;10.246;2023-11-19T09:53:33;99687.44;;;16.57;84.38
18749;BME280;9503;53.560;10.246;2023-11-19T09:56:02;99685.41;;;16.18;85.88
18749;BME280;9503;53.560;10.246;2023-11-19T09:58:29;99692.59;;;16.54;85.59
18749;BME280;9503;53.560;10.246;2023-11-19T10:00:56;99694.47;;;16.73;83.27
18749;BME280;9503;53.560;10.246;2023-11-19T10:03:25;99696.56;;;16.15;84.36
18749;BME280;9503;53.560;10.246;2023-11-19T10:05:54;99685.00;;;16.77;82.90
18749;BME280;9503;53.560;10.246;2023-11-19T10:08:21;99680.03;;;17.18;81.59
18749;BME280;9503;53.560;10.246;2023-11-19T10:10:48;99679.50;;;16.36;83.92
18749;BME280;9503;53.560;10.246;2023-11-19T10:13:15;99681.44;;;16.66;83.96
18749;BME280;9503;53.560;10.246;2023-11-19T10:15:43;99680.34;;;16.32;83.65
18749;BME280;9503;53.560;10.246;2023-11-19T10:18:10;99676.44;;;16.82;83.25
18749;BME280;9503;53.560;10.246;2023-11-19T10:20:37;99676.66;;;17.27;81.64
18749;BME280;9503;53.560;10.246;2023-11-19T10:23:04;99668.75;;;16.98;81.55
18749;BME280;9503;53.560;10.246;2023-11-19T10:25:32;99682.66;;;16.01;81.89
18749;BME280;9503;53.560;10.246;2023-11-19T10:27:59;99683.41;;;16.99;81.16
18749;BME280;9503;53.560;10.246;2023-11-19T10:30:28;99688.59;;;17.02;81.30
18749;BME280;9503;53.560;10.246;2023-11-19T10:33:05;99683.16;;;16.62;83.17
18749;BME280;9503;53.560;10.246;2023-11-19T10:35:32;99687.66;;;16.88;82.71
18749;BME280;9503;53.560;10.246;2023-11-19T10:38:00;99691.22;;;17.08;81.97
18749;BME280;9503;53.560;10.246;2023-11-19T10:40:40;99693.25;;;16.30;83.86
18749;BME280;9503;53.560;10.246;2023-11-19T10:43:07;99685.28;;;17.29;81.99
18749;BME280;9503;53.560;10.246;2023-11-19T10:45:35;99688.34;;;16.67;83.73
18749;BME280;9503;53.560;10.246;2023-11-19T10:48:04;99684.50;;;16.14;84.23
18749;BME280;9503;53.560;10.246;2023-11-19T10:50:32;99698.00;;;15.83;86.20
18749;BME280;9503;53.560;10.246;2023-11-19T10:52:59;99689.53;;;16.00;86.12
18749;BME280;9503;53.560;10.246;2023-11-19T10:55:27;99698.53;;;16.39;83.26
18749;BME280;9503;53.560;10.246;2023-11-19T10:57:59;99694.53;;;15.82;86.51
18749;BME280;9503;53.560;10.246;2023-11-19T11:00:28;99701.88;;;16.29;84.77
18749;BME280;9503;53.560;10.246;2023-11-19T11:03:00;99696.00;;;15.59;86.44
18749;BME280;9503;53.560;10.246;2023-11-19T11:05:29;99697.59;;;16.31;84.09
18749;BME280;9503;53.560;10.246;2023-11-19T11:07:55;99697.53;;;16.25;84.92
18749;BME280;9503;53.560;10.246;2023-11-19T11:10:25;99689.47;;;15.91;86.09
18749;BME280;9503;53.560;10.246;2023-11-19T11:12:52;99699.28;;;16.27;86.02
18749;BME280;9503;53.560;10.246;2023-11-19T11:15:24;99704.31;;;16.14;85.95
18749;BME280;9503;53.560;10.246;2023-11-19T11:17:57;99696.47;;;16.01;85.70
18749;BME280;9503;53.560;10.246;2023-11-19T11:20:25;99704.69;;;16.55;84.50
18749;BME280;9503;53.560;10.246;2023-11-19T11:23:18;99703.00;;;16.60;83.26
18749;BME280;9503;53.560;10.246;2023-11-19T11:26:00;99701.31;;;15.71;87.13
18749;BME280;9503;53.560;10.246;2023-11-19T11:28:37;99709.31;;;16.97;83.48
18749;BME280;9503;53.560;10.246;2023-11-19T11:31:26;99699.69;;;16.79;82.24
18749;BME280;9503;53.560;10.246;2023-11-19T11:34:09;99699.19;;;16.18;84.57
18749;BME280;9503;53.560;10.246;2023-11-19T11:36:49;99706.97;;;16.23;83.97
18749;BME280;9503;53.560;10.246;2023-11-19T11:39:22;99712.28;;;16.35;84.23
18749;BME280;9503;53.560;10.246;2023-11-19T11:45:00;99711.72;;;16.71;83.37
18749;BME280;9503;53.560;10.246;2023-11-19T11:50:30;99713.81;;;16.13;85.42
18749;BME280;9503;53.560;10.246;2023-11-19T11:53:16;99715.91;;;16.57;84.18
18749;BME280;9503;53.560;10.246;2023-11-19T11:55:55;99701.00;;;15.45;85.98
18749;BME280;9503;53.560;10.246;2023-11-19T11:58:29;99705.91;;;15.98;86.27
18749;BME280;9503;53.560;10.246;2023-11-19T12:00:58;99717.88;;;15.90;86.49
18749;BME280;9503;53.560;10.246;2023-11-19T12:03:28;99707.91;;;16.28;85.48
18749;BME280;9503;53.560;10.246;2023-11-19T12:05:57;99699.09;;;15.32;88.16
18749;BME280;9503;53.560;10.246;2023-11-19T12:08:26;99710.53;;;16.34;87.00
18749;BME280;9503;53.560;10.246;2023-11-19T12:10:54;99706.81;;;16.03;87.82
18749;BME280;9503;53.560;10.246;2023-11-19T12:13:23;99692.22;;;16.10;87.16
18749;BME280;9503;53.560;10.246;2023-11-19T12:16:08;99696.75;;;16.35;86.92
18749;BME280;9503;53.560;10.246;2023-11-19T12:18:35;99697.56;;;16.29;85.95
18749;BME280;9503;53.560;10.246;2023-11-19T12:21:04;99696.75;;;16.34;84.11
18749;BME280;9503;53.560;10.246;2023-11-19T12:23:31;99699.56;;;16.66;85.73
18749;BME280;9503;53.560;10.246;2023-11-19T12:25:58;99698.88;;;16.85;83.69
18749;BME280;9503;53.560;10.246;2023-11-19T12:28:25;99690.00;;;16.55;84.96
18749;BME280;9503;53.560;10.246;2023-11-19T12:30:53;99697.59;;;16.31;84.86
18749;BME280;9503;53.560;10.246;2023-11-19T12:33:20;99694.22;;;16.41;84.18
18749;BME280;9503;53.560;10.246;2023-11-19T12:35:47;99698.94;;;16.97;82.50
18749;BME280;9503;53.560;10.246;2023-11-19T12:38:19;99700.56;;;16.78;83.09
18749;BME280;9503;53.560;10.246;2023-11-19T12:40:47;99699.19;;;16.18;85.99
18749;BME280;9503;53.560;10.246;2023-11-19T12:43:21;99692.97;;;15.98;85.49
18749;BME280;9503;53.560;10.246;2023-11-19T12:45:49;99700.19;;;16.36;82.85
18749;BME280;9503;53.560;10.246;2023-11-19T12:48:15;99700.06;;;16.16;83.03
18749;BME280;9503;53.560;10.246;2023-11-19T12:50:51;99706.09;;;16.18;83.88
18749;BME280;9503;53.560;10.246;2023-11-19T12:53:20;99700.41;;;15.66;85.11
18749;BME280;9503;53.560;10.246;2023-11-19T12:55:47;99703.09;;;16.74;81.36
18749;BME280;9503;53.560;10.246;2023-11-19T12:58:28;99699.25;;;16.24;83.99
18749;BME280;9503;53.560;10.246;2023-11-19T13:00:59;99697.13;;;15.79;84.82
18749;BME280;9503;53.560;10.246;2023-11-19T13:03:29;99701.78;;;16.17;84.59
18749;BME280;9503;53.560;10.246;2023-11-19T13:06:04;99684.31;;;15.93;84.55
18749;BME280;9503;53.560;10.246;2023-11-19T13:08:38;99689.78;;;16.23;84.31
18749;BME280;9503;53.560;10.246;2023-11-19T13:11:05;99687.31;;;16.45;83.29